sensor_id;sensor_type;location;lat;lon;timestamp;pressure;altitude;pressure_sealevel;temperature;humidity
50650;BME280;36621;60.058;30.346;2023-05-07T16:30:37;102716.28;;;10.05;31.03
50650;BME280;36621;60.058;30.346;2023-05-07T16:38:12;102741.13;;;9.97;31.76
50650;BME280;36621;60.058;30.346;2023-05-07T16:45:45;102693.44;;;9.67;32.07
50650;BME280;36621;60.058;30.346;2023-05-07T16:53:18;102703.50;;;9.67;32.10
50650;BME280;36621;60.058;30.346;2023-05-07T17:00:51;102741.38;;;9.88;32.12
50650;BME280;36621;60.058;30.346;2023-05-07T17:08:24;102741.13;;;9.97;32.28
50650;BME280;36621;60.058;30.346;2023-05-07T17:15:59;102736.16;;;10.12;32.31
50650;BME280;36621;60.058;30.346;2023-05-07T17:23:31;102749.00;;;9.73;32.61
50650;BME280;36621;60.058;30.346;2023-05-07T17:31:04;102745.97;;;9.49;33.95
50650;BME280;36621;60.058;30.346;2023-05-07T17:38:36;102756.75;;;9.24;34.58
50650;BME280;36621;60.058;30.346;2023-05-07T17:55:16;102749.28;;;8.86;35.51
50650;BME280;36621;60.058;30.346;2023-05-07T18:02:50;102683.97;;;8.32;35.69
50650;BME280;36621;60.058;30.346;2023-05-07T18:10:24;102647.94;;;7.97;36.41
50650;BME280;36621;60.058;30.346;2023-05-07T18:17:56;102732.53;;;8.42;36.33
50650;BME280;36621;60.058;30.346;2023-05-07T18:25:29;102625.75;;;7.60;36.99
50650;BME280;36621;60.058;30.346;2023-05-07T18:33:12;102524.41;;;6.98;36.63
50650;BME280;36621;60.058;30.346;2023-05-07T18:41:14;102703.59;;;7.88;38.00
50650;BME280;36621;60.058;30.346;2023-05-07T18:48:48;102650.94;;;7.34;38.38
50650;BME280;36621;60.058;30.346;2023-05-07T18:56:21;102742.06;;;7.91;39.69
50650;BME280;36621;60.058;30.346;2023-05-07T19:03:53;102755.03;;;7.76;39.74
50650;BME280;36621;60.058;30.346;2023-05-07T19:11:26;102753.72;;;7.65;41.30
50650;BME280;36621;60.058;30.346;2023-05-07T19:19:01;102683.50;;;7.13;41.93
50650;BME280;36621;60.058;30.346;2023-05-07T19:26:39;102705.69;;;7.24;42.86
50650;BME280;36621;60.058;30.346;2023-05-07T19:34:11;102772.69;;;7.52;43.67
50650;BME280;36621;60.058;30.346;2023-05-07T19:41:44;102748.38;;;7.37;43.00
50650;BME280;36621;60.058;30.346;2023-05-07T19:49:19;102742.25;;;7.21;43.72
50650;BME280;36621;60.058;30.346;2023-05-07T19:56:54;102781.63;;;7.39;43.64
50650;BME280;36621;60.058;30.346;2023-05-07T20:04:25;102768.34;;;7.16;44.11
50650;BME280;36621;60.058;30.346;2023-05-07T20:12:03;102788.22;;;7.23;44.34
50650;BME280;36621;60.058;30.346;2023-05-07T20:19:35;102790.25;;;7.14;44.92
50650;BME280;36621;60.058;30.346;2023-05-07T20:27:08;102719.59;;;6.72;44.55
50650;BME280;36621;60.058;30.346;2023-05-07T20:34:40;102790.41;;;7.06;45.02
50650;BME280;36621;60.058;30.346;2023-05-07T20:42:13;102801.56;;;7.18;45.29
50650;BME280;36621;60.058;30.346;2023-05-07T20:49:48;102765.09;;;6.99;44.71
50650;BME280;36621;60.058;30.346;2023-05-07T20:57:21;102792.09;;;7.07;44.00
50650;BME280;36621;60.058;30.346;2023-05-07T21:04:54;102744.06;;;6.79;44.11
50650;BME280;36621;60.058;30.346;2023-05-07T21:12:27;102810.78;;;7.17;44.17
50650;BME280;36621;60.058;30.346;2023-05-07T21:19:59;102816.19;;;7.17;44.05
50650;BME280;36621;60.058;30.346;2023-05-07T21:27:33;102819.59;;;7.25;43.62
50650;BME280;36621;60.058;30.346;2023-05-07T21:35:06;102780.34;;;7.00;42.93
50650;BME280;36621;60.058;30.346;2023-05-07T21:42:39;102820.63;;;7.24;42.88
50650;BME280;36621;60.058;30.346;2023-05-07T21:50:11;102830.81;;;7.16;42.46
50650;BME280;36621;60.058;30.346;2023-05-07T21:57:45;102837.88;;;7.10;42.60
50650;BME280;36621;60.058;30.346;2023-05-07T22:05:17;102830.25;;;6.99;42.73
50650;BME280;36621;60.058;30.346;2023-05-07T22:12:50;102828.16;;;6.94;43.45
50650;BME280;36621;60.058;30.346;2023-05-07T22:20:22;102797.41;;;6.65;43.94
50650;BME280;36621;60.058;30.346;2023-05-07T22:27:55;102806.66;;;6.71;44.66
50650;BME280;36621;60.058;30.346;2023-05-07T22:35:27;102617.47;;;5.43;45.60
50650;BME280;36621;60.058;30.346;2023-05-07T22:43:00;102817.38;;;6.79;45.82
50650;BME280;36621;60.058;30.346;2023-05-07T22:50:35;102822.63;;;6.81;46.15
50650;BME280;36621;60.058;30.346;2023-05-07T22:58:09;102819.25;;;6.78;47.00
50650;BME280;36621;60.058;30.346;2023-05-07T23:05:41;102816.72;;;6.77;47.72
50650;BME280;36621;60.058;30.346;2023-05-07T23:13:14;102825.56;;;6.86;47.92
50650;BME280;36621;60.058;30.346;2023-05-07T23:20:47;102810.06;;;6.80;47.79
50650;BME280;36621;60.058;30.346;2023-05-07T23:28:20;102800.00;;;6.73;47.79
50650;BME280;36621;60.058;30.346;2023-05-07T23:35:58;102824.00;;;6.98;47.04
50650;BME280;36621;60.058;30.346;2023-05-07T23:43:30;102781.94;;;6.59;47.30
50650;BME280;36621;60.058;30.346;2023-05-07T23:51:02;102779.81;;;6.54;47.00
50650;BME280;36621;60.058;30.346;2023-05-07T23:58:35;102769.66;;;6.41;47.19
